METAR EVRA 201020Z 13010KT 080V170 CAVOK 27/10 Q1013 NOSIG =

Controllers Online

PositionControllerOnline
No controllers currently online

Booked ATC Today

No ATC booked yet.
Be the first for today!
* Times are UTC

The time is now

UTC: 

Local: 

Latvia vACC on twitter